createdAt,value
2023-05-10T00:00:31.432Z,8.50
2023-05-10T00:01:31.508Z,8.67
2023-05-10T00:02:31.511Z,8.56
2023-05-10T00:03:31.485Z,8.02
2023-05-10T00:04:31.475Z,7.86
2023-05-10T00:05:31.523Z,7.98
2023-05-10T00:06:31.509Z,7.67
2023-05-10T00:07:31.485Z,7.59
2023-05-10T00:08:31.496Z,7.75
2023-05-10T00:09:31.510Z,7.95
2023-05-10T00:10:31.528Z,8.04
2023-05-10T00:11:31.618Z,8.07
2023-05-10T00:12:31.549Z,7.97
2023-05-10T00:13:31.604Z,7.84
2023-05-10T00:14:31.608Z,7.83
2023-05-10T00:15:31.621Z,7.93
2023-05-10T00:16:31.684Z,8.14
2023-05-10T00:17:31.629Z,7.92
2023-05-10T00:18:31.592Z,7.74
2023-05-10T00:19:31.627Z,7.47
2023-05-10T00:20:31.637Z,7.61
2023-05-10T00:21:31.639Z,7.84
2023-05-10T00:22:31.643Z,7.95
2023-05-10T00:23:31.659Z,7.77
2023-05-10T00:24:31.699Z,7.31
2023-05-10T00:25:31.688Z,7.31
2023-05-10T00:26:31.717Z,7.57
2023-05-10T00:27:31.795Z,7.53
2023-05-10T00:28:31.721Z,7.88
2023-05-10T00:29:31.742Z,7.52
2023-05-10T00:30:31.739Z,7.56
2023-05-10T00:31:31.804Z,7.67
2023-05-10T00:32:31.843Z,7.72
2023-05-10T00:33:31.836Z,7.54
2023-05-10T00:34:31.821Z,7.57
2023-05-10T00:35:31.841Z,7.80
2023-05-10T00:36:31.851Z,7.22
2023-05-10T00:37:31.896Z,7.24
2023-05-10T00:38:31.883Z,7.04
2023-05-10T00:39:31.893Z,7.50
2023-05-10T00:40:31.926Z,7.39
2023-05-10T00:41:31.921Z,7.13
2023-05-10T00:42:31.933Z,7.03
2023-05-10T00:43:32.012Z,7.06
2023-05-10T00:44:31.994Z,6.90
2023-05-10T00:45:31.976Z,6.95
2023-05-10T00:46:32.047Z,6.75
2023-05-10T00:47:32.046Z,6.86
2023-05-10T00:48:32.046Z,7.04
2023-05-10T00:49:32.029Z,6.74
2023-05-10T00:50:32.066Z,6.58
2023-05-10T00:51:32.058Z,6.29
2023-05-10T00:52:32.115Z,6.29
2023-05-10T00:53:32.126Z,6.34
2023-05-10T00:54:32.112Z,6.26
2023-05-10T00:55:32.122Z,6.23
2023-05-10T00:56:32.156Z,6.10
2023-05-10T00:57:32.134Z,6.39
2023-05-10T00:58:32.203Z,6.45
2023-05-10T00:59:32.248Z,6.33
2023-05-10T01:00:32.184Z,6.07
2023-05-10T01:01:32.276Z,6.27
2023-05-10T01:02:32.313Z,6.29
2023-05-10T01:03:32.277Z,6.42
2023-05-10T01:04:32.264Z,6.26
2023-05-10T01:05:32.267Z,6.35
2023-05-10T01:06:32.280Z,6.51
2023-05-10T01:07:32.277Z,6.64
2023-05-10T01:08:32.353Z,6.53
2023-05-10T01:09:32.327Z,6.69
2023-05-10T01:10:32.336Z,6.50
2023-05-10T01:11:32.362Z,6.41
2023-05-10T01:12:32.501Z,6.14
2023-05-10T01:13:32.442Z,6.00
2023-05-10T01:14:32.453Z,6.00
2023-05-10T01:15:32.477Z,5.84
2023-05-10T01:16:32.592Z,6.13
2023-05-10T01:17:32.555Z,6.13
2023-05-10T01:18:32.559Z,6.29
2023-05-10T01:19:32.556Z,6.24
2023-05-10T01:20:32.595Z,6.40
2023-05-10T01:21:32.671Z,6.49
2023-05-10T01:22:32.646Z,6.66
2023-05-10T01:23:32.682Z,6.37
2023-05-10T01:24:32.684Z,6.37
2023-05-10T01:25:32.725Z,6.56
2023-05-10T01:26:32.741Z,6.41
2023-05-10T01:27:32.775Z,7.15
2023-05-10T01:28:32.808Z,6.87
2023-05-10T01:29:32.816Z,6.71
2023-05-10T01:30:32.849Z,6.63
2023-05-10T01:31:32.909Z,6.36
2023-05-10T01:32:32.928Z,6.21
2023-05-10T01:33:32.929Z,6.09
2023-05-10T01:34:32.929Z,6.04
2023-05-10T01:35:32.967Z,5.76
2023-05-10T01:36:32.973Z,5.86
2023-05-10T01:37:33.026Z,5.59
2023-05-10T01:38:33.038Z,5.65
2023-05-10T01:39:33.072Z,5.73
2023-05-10T01:40:33.090Z,5.73
2023-05-10T01:41:33.121Z,5.51
2023-05-10T01:42:33.159Z,5.35
2023-05-10T01:43:33.161Z,5.07
2023-05-10T01:44:33.205Z,5.08
2023-05-10T01:45:33.210Z,4.86
2023-05-10T01:46:33.261Z,4.99
2023-05-10T01:47:33.269Z,5.01
2023-05-10T01:48:33.295Z,4.81
2023-05-10T01:49:33.304Z,4.77
2023-05-10T01:50:33.373Z,4.69
2023-05-10T01:51:33.405Z,4.97
2023-05-10T01:52:33.394Z,5.14
2023-05-10T01:53:33.411Z,4.90
2023-05-10T01:54:33.425Z,4.90
2023-05-10T01:55:33.465Z,4.84
2023-05-10T01:56:33.506Z,4.76
2023-05-10T01:57:33.531Z,4.71
2023-05-10T01:58:33.552Z,4.77
2023-05-10T01:59:33.582Z,4.78
2023-05-10T02:00:33.616Z,4.66
2023-05-10T02:01:33.631Z,4.62
2023-05-10T02:02:33.687Z,4.89
2023-05-10T02:03:33.701Z,4.62
2023-05-10T02:04:33.713Z,4.82
2023-05-10T02:05:33.734Z,4.84
2023-05-10T02:06:33.776Z,4.77
2023-05-10T02:07:33.797Z,4.85
2023-05-10T02:08:33.833Z,4.78
2023-05-10T02:09:33.856Z,4.81
2023-05-10T02:10:33.881Z,4.72
2023-05-10T02:11:33.899Z,5.11
2023-05-10T02:12:33.935Z,4.95
2023-05-10T02:13:33.969Z,4.97
2023-05-10T02:14:33.997Z,4.78
2023-05-10T02:15:34.018Z,4.95
2023-05-10T02:16:34.098Z,4.86
2023-05-10T02:17:34.113Z,4.91
2023-05-10T02:18:34.130Z,4.74
2023-05-10T02:19:34.160Z,4.55
2023-05-10T02:20:34.187Z,4.60
2023-05-10T02:21:34.251Z,4.31
2023-05-10T02:22:34.241Z,4.37
2023-05-10T02:23:34.282Z,4.25
2023-05-10T02:24:34.342Z,4.13
2023-05-10T02:25:34.368Z,4.28
2023-05-10T02:26:34.395Z,4.17
2023-05-10T02:27:34.406Z,4.07
2023-05-10T02:28:34.469Z,3.95
2023-05-10T02:29:34.509Z,3.87
2023-05-10T02:30:34.530Z,3.72
2023-05-10T02:31:34.646Z,4.13
2023-05-10T02:32:34.622Z,3.87
2023-05-10T02:33:34.625Z,4.02
2023-05-10T02:34:34.672Z,3.85
2023-05-10T02:35:34.695Z,3.89
2023-05-10T02:36:34.730Z,3.80
2023-05-10T02:37:34.759Z,3.84
2023-05-10T02:38:34.793Z,3.86
2023-05-10T02:39:34.856Z,3.95
2023-05-10T02:40:34.876Z,4.03
2023-05-10T02:41:34.910Z,3.92
2023-05-10T02:42:34.937Z,3.92
2023-05-10T02:43:34.972Z,3.92
2023-05-10T02:44:35.007Z,3.82
2023-05-10T02:45:35.077Z,3.61
2023-05-10T02:46:35.181Z,3.59
2023-05-10T02:47:35.173Z,3.73
2023-05-10T02:48:35.168Z,3.75
2023-05-10T02:49:35.195Z,3.59
2023-05-10T02:50:35.217Z,3.59
2023-05-10T02:51:35.319Z,3.75
2023-05-10T02:52:35.263Z,3.76
2023-05-10T02:53:35.328Z,3.65
2023-05-10T02:54:35.359Z,3.69
2023-05-10T02:55:35.358Z,3.48
2023-05-10T02:56:35.417Z,3.55
2023-05-10T02:57:35.470Z,3.63
2023-05-10T02:58:35.478Z,3.61
2023-05-10T02:59:35.494Z,3.61
2023-05-10T03:00:35.531Z,3.68
2023-05-10T03:01:35.583Z,3.70
2023-05-10T03:02:35.618Z,3.46
2023-05-10T03:03:35.638Z,3.69
2023-05-10T03:04:35.714Z,3.59
2023-05-10T03:05:35.710Z,3.45
2023-05-10T03:06:35.751Z,3.42
2023-05-10T03:07:35.773Z,3.46
2023-05-10T03:08:35.817Z,3.42
2023-05-10T03:09:35.834Z,3.53
2023-05-10T03:10:35.878Z,3.62
2023-05-10T03:11:35.912Z,3.52
2023-05-10T03:12:35.945Z,3.67
2023-05-10T03:13:36.005Z,3.32
2023-05-10T03:14:35.979Z,3.31
2023-05-10T03:15:36.030Z,3.33
2023-05-10T03:16:36.084Z,3.34
2023-05-10T03:17:36.149Z,3.42
2023-05-10T03:18:36.131Z,3.54
2023-05-10T03:19:36.226Z,3.53
2023-05-10T03:20:36.243Z,3.41
2023-05-10T03:21:36.325Z,3.38
2023-05-10T03:22:36.306Z,3.40
2023-05-10T03:23:36.294Z,3.46
2023-05-10T03:24:36.360Z,3.39
2023-05-10T03:25:36.348Z,3.36
2023-05-10T03:26:36.373Z,3.34
2023-05-10T03:27:36.397Z,3.39
2023-05-10T03:28:36.435Z,3.57
2023-05-10T03:29:36.477Z,3.54
2023-05-10T03:30:36.513Z,3.54
2023-05-10T03:31:36.581Z,3.63
2023-05-10T03:32:36.617Z,3.67
2023-05-10T03:33:36.612Z,3.55
2023-05-10T03:34:36.631Z,3.70
2023-05-10T03:35:36.665Z,3.71
2023-05-10T03:36:36.716Z,3.92
2023-05-10T03:37:36.763Z,4.03
2023-05-10T03:38:36.779Z,3.77
2023-05-10T03:39:36.813Z,3.83
2023-05-10T03:40:36.845Z,3.98
2023-05-10T03:41:36.892Z,3.78
2023-05-10T03:42:36.916Z,3.75
2023-05-10T03:43:36.994Z,3.77
2023-05-10T03:44:37.010Z,3.80
2023-05-10T03:45:37.041Z,3.77
2023-05-10T03:46:37.121Z,3.72
2023-05-10T03:47:37.105Z,3.90
2023-05-10T03:48:37.192Z,3.94
2023-05-10T03:49:37.187Z,3.94
2023-05-10T03:50:37.237Z,3.61
2023-05-10T03:51:37.347Z,3.56
2023-05-10T03:52:37.298Z,3.56
2023-05-10T03:53:37.320Z,3.54
2023-05-10T03:54:37.380Z,3.51
2023-05-10T03:55:37.453Z,3.39
2023-05-10T03:56:37.452Z,3.25
2023-05-10T03:57:37.460Z,3.33
2023-05-10T03:58:37.504Z,3.26
2023-05-10T03:59:37.534Z,3.24
2023-05-10T04:00:37.576Z,3.27
2023-05-10T04:01:37.672Z,3.02
2023-05-10T04:02:38.450Z,3.36
2023-05-10T04:03:38.010Z,3.36
2023-05-10T04:04:37.804Z,3.22
2023-05-10T04:05:37.794Z,3.06
2023-05-10T04:06:37.857Z,2.92
2023-05-10T04:07:37.892Z,2.76
2023-05-10T04:08:37.911Z,2.74
2023-05-10T04:09:37.959Z,2.83
2023-05-10T04:10:38.029Z,2.68
2023-05-10T04:11:38.056Z,2.98
2023-05-10T04:12:38.058Z,2.72
2023-05-10T04:13:38.097Z,2.70
2023-05-10T04:14:38.147Z,2.68
2023-05-10T04:15:38.188Z,2.89
2023-05-10T04:16:38.286Z,2.88
2023-05-10T04:17:38.312Z,2.90
2023-05-10T04:18:38.297Z,2.87
2023-05-10T04:19:38.384Z,2.81
2023-05-10T04:20:38.384Z,2.82
2023-05-10T04:21:38.438Z,2.79
2023-05-10T04:22:38.465Z,2.91
2023-05-10T04:23:38.510Z,2.96
2023-05-10T04:24:38.536Z,2.94
2023-05-10T04:25:38.604Z,3.00
2023-05-10T04:26:38.619Z,3.19
2023-05-10T04:27:38.698Z,3.07
2023-05-10T04:28:38.704Z,2.95
2023-05-10T04:29:38.735Z,2.89
2023-05-10T04:30:38.789Z,2.78
2023-05-10T04:31:38.815Z,2.83
2023-05-10T04:32:38.911Z,2.65
2023-05-10T04:33:38.886Z,2.78
2023-05-10T04:34:38.930Z,2.74
2023-05-10T04:35:38.976Z,2.68
2023-05-10T04:36:39.008Z,2.78
2023-05-10T04:37:39.056Z,2.68
2023-05-10T04:38:39.157Z,2.76
2023-05-10T04:39:40.935Z,2.59
2023-05-10T04:40:39.125Z,2.79
2023-05-10T04:41:39.203Z,2.78
2023-05-10T04:42:39.112Z,2.78
2023-05-10T04:43:39.297Z,2.85
2023-05-10T04:44:39.172Z,2.97
2023-05-10T04:45:39.101Z,3.07
2023-05-10T04:46:39.117Z,3.03
2023-05-10T04:47:39.136Z,3.03
2023-05-10T04:48:39.073Z,3.16
2023-05-10T04:49:39.075Z,3.18
2023-05-10T04:50:39.070Z,3.16
2023-05-10T04:51:39.053Z,3.27
2023-05-10T04:52:39.059Z,3.39
2023-05-10T04:53:39.046Z,3.30
2023-05-10T04:54:39.022Z,3.31
2023-05-10T04:55:39.045Z,3.40
2023-05-10T04:56:39.025Z,3.45
2023-05-10T04:57:39.014Z,3.55
2023-05-10T04:58:39.007Z,3.36
2023-05-10T04:59:39.003Z,3.42
2023-05-10T05:00:38.997Z,3.37
2023-05-10T05:01:39.031Z,3.47
2023-05-10T05:02:39.031Z,3.43
2023-05-10T05:03:39.147Z,3.57
2023-05-10T05:04:38.979Z,3.54
2023-05-10T05:05:38.960Z,3.53
2023-05-10T05:06:38.958Z,3.62
2023-05-10T05:07:38.952Z,3.54
2023-05-10T05:08:38.931Z,3.82
2023-05-10T05:09:38.938Z,3.98
2023-05-10T05:10:38.914Z,3.97
2023-05-10T05:11:38.911Z,4.20
2023-05-10T05:12:38.910Z,4.32
2023-05-10T05:13:38.891Z,4.26
2023-05-10T05:14:38.921Z,4.17
2023-05-10T05:15:38.876Z,4.11
2023-05-10T05:16:38.938Z,3.99
2023-05-10T05:17:38.878Z,4.02
2023-05-10T05:18:38.886Z,4.04
2023-05-10T05:19:38.863Z,3.99
2023-05-10T05:20:38.849Z,3.88
2023-05-10T05:21:38.834Z,3.93
2023-05-10T05:22:38.818Z,4.02
2023-05-10T05:23:38.843Z,4.17
2023-05-10T05:24:38.809Z,4.32
2023-05-10T05:25:38.805Z,4.51
2023-05-10T05:26:38.825Z,4.34
2023-05-10T05:27:38.813Z,4.67
2023-05-10T05:28:38.794Z,4.67
2023-05-10T05:29:38.782Z,4.58
2023-05-10T05:30:38.790Z,4.93
2023-05-10T05:31:38.886Z,4.63
2023-05-10T05:32:38.872Z,5.14
2023-05-10T05:33:38.908Z,5.82
2023-05-10T05:34:38.929Z,6.40
2023-05-10T05:35:38.967Z,6.98
2023-05-10T05:36:39.023Z,7.29
2023-05-10T05:37:39.033Z,7.64
2023-05-10T05:38:39.051Z,7.46
2023-05-10T05:39:39.086Z,8.22
2023-05-10T05:40:39.079Z,9.22
2023-05-10T05:41:39.117Z,9.95
2023-05-10T05:42:39.140Z,11.03
2023-05-10T05:43:39.142Z,11.75
2023-05-10T05:44:39.159Z,12.29
2023-05-10T05:45:39.189Z,12.98
2023-05-10T05:46:39.158Z,13.51
2023-05-10T05:47:39.188Z,14.39
2023-05-10T05:48:39.176Z,14.85
2023-05-10T05:49:39.651Z,15.37
2023-05-10T05:50:39.172Z,16.26
2023-05-10T05:51:39.195Z,16.97
2023-05-10T05:52:39.190Z,17.38
2023-05-10T05:53:39.164Z,17.99
2023-05-10T05:54:39.174Z,18.40
2023-05-10T05:55:39.179Z,18.99
2023-05-10T05:56:39.190Z,19.62
2023-05-10T05:57:39.210Z,20.05
2023-05-10T05:58:39.268Z,19.33
2023-05-10T05:59:39.255Z,13.98
2023-05-10T06:00:39.276Z,8.56
2023-05-10T06:01:39.251Z,6.74
2023-05-10T06:02:39.378Z,6.66
2023-05-10T06:03:39.578Z,6.61
2023-05-10T06:04:39.408Z,5.97
2023-05-10T06:05:39.417Z,5.91
2023-05-10T06:06:39.418Z,5.60
2023-05-10T06:07:39.436Z,5.38
2023-05-10T06:08:39.447Z,7.10
2023-05-10T06:09:39.552Z,8.15
2023-05-10T06:10:39.501Z,8.63
2023-05-10T06:11:39.488Z,9.21
2023-05-10T06:12:39.501Z,10.11
2023-05-10T06:13:39.514Z,11.15
2023-05-10T06:14:39.681Z,11.69
2023-05-10T06:15:39.625Z,12.91
2023-05-10T06:16:39.712Z,13.62
2023-05-10T06:17:39.832Z,13.55
2023-05-10T06:18:39.746Z,13.26
2023-05-10T06:19:40.174Z,13.59
2023-05-10T06:20:39.789Z,14.41
2023-05-10T06:21:39.829Z,15.08
2023-05-10T06:22:39.791Z,15.28
2023-05-10T06:23:39.793Z,15.49
2023-05-10T06:24:39.803Z,15.34
2023-05-10T06:25:39.824Z,15.51
2023-05-10T06:26:39.811Z,16.01
2023-05-10T06:27:39.791Z,16.88
2023-05-10T06:28:39.813Z,17.87
2023-05-10T06:29:39.817Z,17.85
2023-05-10T06:30:40.176Z,18.07
2023-05-10T06:31:39.937Z,17.79
2023-05-10T06:32:39.961Z,18.43
2023-05-10T06:33:39.972Z,19.32
2023-05-10T06:34:40.203Z,19.62
2023-05-10T06:35:40.079Z,18.65
2023-05-10T06:36:40.089Z,19.08
2023-05-10T06:37:40.158Z,19.92
2023-05-10T06:38:40.217Z,20.50
2023-05-10T06:39:40.691Z,21.17
2023-05-10T06:40:40.316Z,21.69
2023-05-10T06:41:40.413Z,22.14
2023-05-10T06:42:40.445Z,23.00
2023-05-10T06:43:40.498Z,23.40
2023-05-10T06:44:40.531Z,23.04
2023-05-10T06:45:40.626Z,23.52
2023-05-10T06:46:40.644Z,23.89
2023-05-10T06:47:40.722Z,24.68
2023-05-10T06:48:41.178Z,24.23
2023-05-10T06:49:40.805Z,23.99
2023-05-10T06:50:40.857Z,24.69
2023-05-10T06:51:40.894Z,24.32
2023-05-10T06:52:40.986Z,24.67
2023-05-10T06:53:40.986Z,24.06
2023-05-10T06:54:41.034Z,23.73
2023-05-10T06:55:41.114Z,24.06
2023-05-10T06:56:41.193Z,23.82
2023-05-10T06:57:41.214Z,23.58
2023-05-10T06:58:41.226Z,23.47
2023-05-10T06:59:41.247Z,23.71
2023-05-10T07:00:41.363Z,22.98
2023-05-10T07:01:41.387Z,23.03
2023-05-10T07:02:41.397Z,22.61
2023-05-10T07:03:41.429Z,23.15
2023-05-10T07:04:41.521Z,22.75
2023-05-10T07:05:41.570Z,22.03
2023-05-10T07:06:41.541Z,22.73
2023-05-10T07:07:41.585Z,22.22
2023-05-10T07:08:41.624Z,22.57
2023-05-10T07:09:41.706Z,22.80
2023-05-10T07:10:41.717Z,22.76
2023-05-10T07:11:41.758Z,22.78
2023-05-10T07:12:41.875Z,22.08
2023-05-10T07:13:41.861Z,22.66
2023-05-10T07:14:42.217Z,22.61
2023-05-10T07:15:41.891Z,22.50
2023-05-10T07:16:41.996Z,22.75
2023-05-10T07:17:43.380Z,22.84
2023-05-10T07:18:42.043Z,23.66
2023-05-10T07:19:41.962Z,23.34
2023-05-10T07:20:41.941Z,24.24
2023-05-10T07:21:41.953Z,23.48
2023-05-10T07:22:41.926Z,23.94
2023-05-10T07:23:43.686Z,24.62
2023-05-10T07:24:41.927Z,23.53
2023-05-10T07:25:41.957Z,23.49
2023-05-10T07:26:42.263Z,21.82
2023-05-10T07:27:41.897Z,22.85
2023-05-10T07:28:41.888Z,22.88
2023-05-10T07:29:41.914Z,20.28
2023-05-10T07:30:41.905Z,17.91
2023-05-10T07:31:42.205Z,19.81
2023-05-10T07:32:41.887Z,22.92
2023-05-10T07:33:41.847Z,24.45
2023-05-10T07:34:41.858Z,24.22
2023-05-10T07:35:41.850Z,26.39
2023-05-10T07:36:41.825Z,31.00
2023-05-10T07:37:41.821Z,35.10
2023-05-10T07:38:41.830Z,34.65
2023-05-10T07:39:41.839Z,34.25
2023-05-10T07:40:41.798Z,32.32
2023-05-10T07:41:41.804Z,35.80
2023-05-10T07:42:41.788Z,29.20
2023-05-10T07:43:41.797Z,31.94
2023-05-10T07:44:41.809Z,32.19
2023-05-10T07:45:41.776Z,30.44
2023-05-10T07:46:41.799Z,29.62
2023-05-10T07:47:41.804Z,31.91
2023-05-10T07:48:41.737Z,35.55
2023-05-10T07:49:42.205Z,36.30
2023-05-10T07:50:41.722Z,22.86
2023-05-10T07:51:41.727Z,24.46
2023-05-10T07:52:41.720Z,24.98
2023-05-10T07:53:41.701Z,20.44
2023-05-10T07:54:42.194Z,20.22
2023-05-10T07:55:41.718Z,19.23
2023-05-10T07:56:41.696Z,20.95
2023-05-10T07:57:41.669Z,20.78
2023-05-10T07:58:41.689Z,17.73
2023-05-10T07:59:41.691Z,16.08
2023-05-10T08:00:41.656Z,14.77
2023-05-10T08:01:41.642Z,14.38
2023-05-10T08:02:41.690Z,13.73
2023-05-10T08:03:41.707Z,13.31
2023-05-10T08:04:41.753Z,13.06
2023-05-10T08:05:41.665Z,12.92
2023-05-10T08:06:41.755Z,13.07
2023-05-10T08:07:41.606Z,13.19
2023-05-10T08:08:41.648Z,13.42
2023-05-10T08:09:41.672Z,13.17
2023-05-10T08:10:41.608Z,12.33
2023-05-10T08:11:41.608Z,12.25
2023-05-10T08:12:41.578Z,12.00
2023-05-10T08:13:41.658Z,11.42
2023-05-10T08:14:41.742Z,11.41
2023-05-10T08:15:41.604Z,10.71
2023-05-10T08:16:41.614Z,10.07
2023-05-10T08:17:41.733Z,10.06
2023-05-10T08:18:41.758Z,10.03
2023-05-10T08:19:42.211Z,10.71
2023-05-10T08:20:42.214Z,10.40
2023-05-10T08:21:41.908Z,10.30
2023-05-10T08:22:41.941Z,7.78
2023-05-10T08:23:41.983Z,8.04
2023-05-10T08:24:42.101Z,8.56
2023-05-10T08:25:42.112Z,8.89
2023-05-10T08:26:42.153Z,8.45
2023-05-10T08:27:42.203Z,7.87
2023-05-10T08:28:42.285Z,7.78
2023-05-10T08:29:50.182Z,7.83
2023-05-10T08:30:43.317Z,7.85
2023-05-10T08:31:42.347Z,7.90
2023-05-10T08:32:42.366Z,7.97
2023-05-10T08:33:44.433Z,8.28
2023-05-10T08:34:42.349Z,9.19
2023-05-10T08:35:42.726Z,9.17
2023-05-10T08:36:42.466Z,7.33
2023-05-10T08:37:42.516Z,7.19
2023-05-10T08:38:42.630Z,8.28
2023-05-10T08:39:42.648Z,8.91
2023-05-10T08:40:42.729Z,10.13
2023-05-10T08:41:42.719Z,9.56
2023-05-10T08:42:42.801Z,9.16
2023-05-10T08:43:42.955Z,9.02
2023-05-10T08:44:42.879Z,8.68
2023-05-10T08:45:43.220Z,9.42
2023-05-10T08:46:42.964Z,9.49
2023-05-10T08:47:42.980Z,9.64
2023-05-10T08:48:43.006Z,10.58
2023-05-10T08:49:43.047Z,10.75
2023-05-10T08:50:43.225Z,11.05
2023-05-10T08:51:43.954Z,10.86
2023-05-10T08:52:43.156Z,11.20
2023-05-10T08:53:43.186Z,14.02
2023-05-10T08:54:43.195Z,15.24
2023-05-10T08:55:43.254Z,11.25
2023-05-10T08:56:43.274Z,11.51
2023-05-10T08:57:43.318Z,9.35
2023-05-10T08:58:43.345Z,8.26
2023-05-10T08:59:43.390Z,9.93
2023-05-10T09:00:43.479Z,10.72
2023-05-10T09:01:43.453Z,10.60
2023-05-10T09:02:43.577Z,10.53
2023-05-10T09:03:43.545Z,11.19
2023-05-10T09:04:43.610Z,11.24
2023-05-10T09:05:43.748Z,11.75
2023-05-10T09:06:43.601Z,11.36
2023-05-10T09:07:43.630Z,11.75
2023-05-10T09:08:43.656Z,11.68
2023-05-10T09:09:43.687Z,11.61
2023-05-10T09:10:43.724Z,11.90
2023-05-10T09:11:43.768Z,11.98
2023-05-10T09:12:43.766Z,11.77
2023-05-10T09:13:43.794Z,12.42
2023-05-10T09:14:43.803Z,12.59
2023-05-10T09:15:44.250Z,12.76
2023-05-10T09:16:43.915Z,12.24
2023-05-10T09:17:43.963Z,11.35
2023-05-10T09:18:43.908Z,12.12
2023-05-10T09:19:43.892Z,11.70
2023-05-10T09:20:44.229Z,11.44
2023-05-10T09:21:43.914Z,11.97
2023-05-10T09:22:43.952Z,11.19
2023-05-10T09:23:44.717Z,11.66
2023-05-10T09:24:43.981Z,10.69
2023-05-10T09:25:44.250Z,11.07
2023-05-10T09:26:44.043Z,8.20
2023-05-10T09:27:44.076Z,6.60
2023-05-10T09:28:44.076Z,6.91
2023-05-10T09:29:44.106Z,6.85
2023-05-10T09:30:44.286Z,6.11
2023-05-10T09:31:44.193Z,5.68
2023-05-10T09:32:44.273Z,5.83
2023-05-10T09:33:44.272Z,6.15
2023-05-10T09:34:44.299Z,6.51
2023-05-10T09:35:44.745Z,6.00
2023-05-10T09:36:44.378Z,5.48
2023-05-10T09:37:44.451Z,5.14
2023-05-10T09:38:44.493Z,5.72
2023-05-10T09:39:44.519Z,5.73
2023-05-10T09:40:44.751Z,4.74
2023-05-10T09:41:44.595Z,4.10
2023-05-10T09:42:44.670Z,3.82
2023-05-10T09:43:44.686Z,3.49
2023-05-10T09:44:44.751Z,3.82
2023-05-10T09:45:45.262Z,3.66
2023-05-10T09:46:44.794Z,3.04
2023-05-10T09:47:44.889Z,4.36
2023-05-10T09:48:44.852Z,3.96
2023-05-10T09:49:44.912Z,4.72
2023-05-10T09:50:44.921Z,4.96
2023-05-10T09:51:44.968Z,4.86
2023-05-10T09:52:44.967Z,5.87
2023-05-10T09:53:45.014Z,5.29
2023-05-10T09:54:45.049Z,5.06
2023-05-10T09:55:45.064Z,5.35
2023-05-10T09:56:45.087Z,6.14
2023-05-10T09:57:45.094Z,6.20
2023-05-10T09:58:45.150Z,5.13
2023-05-10T09:59:45.143Z,5.02
2023-05-10T10:00:45.197Z,5.39
2023-05-10T10:01:45.283Z,6.55
2023-05-10T10:02:45.303Z,5.95
2023-05-10T10:03:45.291Z,5.20
2023-05-10T10:04:45.293Z,4.91
2023-05-10T10:05:45.341Z,5.09
2023-05-10T10:06:45.337Z,4.97
2023-05-10T10:07:45.369Z,4.66
2023-05-10T10:08:45.396Z,5.29
2023-05-10T10:09:45.469Z,2.67
2023-05-10T10:10:46.203Z,2.30
2023-05-10T10:11:45.533Z,1.52
2023-05-10T10:12:45.595Z,1.40
2023-05-10T10:13:45.524Z,1.35
2023-05-10T10:14:45.533Z,1.26
2023-05-10T10:15:45.874Z,1.25
2023-05-10T10:16:59.616Z,1.18
2023-05-10T10:17:46.638Z,1.19
2023-05-10T10:18:45.593Z,1.22
2023-05-10T10:19:45.594Z,1.35
2023-05-10T10:20:45.787Z,1.82
2023-05-10T10:21:45.598Z,2.31
2023-05-10T10:22:45.587Z,2.80
2023-05-10T10:23:45.557Z,3.15
2023-05-10T10:24:45.558Z,3.24
2023-05-10T10:25:45.583Z,2.77
2023-05-10T10:26:45.525Z,2.81
2023-05-10T10:27:45.587Z,1.81
2023-05-10T10:28:45.518Z,1.88
2023-05-10T10:29:45.523Z,1.58
2023-05-10T10:30:45.536Z,1.28
2023-05-10T10:31:45.651Z,1.23
2023-05-10T10:32:45.564Z,1.22
2023-05-10T10:33:48.114Z,1.23
2023-05-10T10:34:45.463Z,1.29
2023-05-10T10:35:45.787Z,1.31
2023-05-10T10:36:45.836Z,1.29
2023-05-10T10:37:45.502Z,1.24
2023-05-10T10:38:45.447Z,1.16
2023-05-10T10:39:45.444Z,1.23
2023-05-10T10:40:45.440Z,1.30
2023-05-10T10:41:45.434Z,1.22
2023-05-10T10:42:45.416Z,1.21
2023-05-10T10:43:45.407Z,1.13
2023-05-10T10:44:45.406Z,1.06
2023-05-10T10:45:45.394Z,1.04
2023-05-10T10:46:45.437Z,0.97
2023-05-10T10:47:45.464Z,0.95
2023-05-10T10:48:45.365Z,0.95
2023-05-10T10:49:45.385Z,1.04
2023-05-10T10:50:45.363Z,0.99
2023-05-10T10:51:45.354Z,0.97
2023-05-10T10:52:45.385Z,1.09
2023-05-10T10:53:45.373Z,1.15
2023-05-10T10:54:45.333Z,1.08
2023-05-10T10:55:45.326Z,0.98
2023-05-10T10:56:45.333Z,0.96
2023-05-10T10:57:45.305Z,0.88
2023-05-10T10:58:45.332Z,0.92
2023-05-10T10:59:45.313Z,0.91
2023-05-10T11:00:45.303Z,0.97
2023-05-10T11:01:45.301Z,0.94
2023-05-10T11:02:45.339Z,0.99
2023-05-10T11:03:45.274Z,1.04
2023-05-10T11:04:45.300Z,0.97
2023-05-10T11:05:45.264Z,0.98
2023-05-10T11:06:45.234Z,0.96
2023-05-10T11:07:45.238Z,0.89
2023-05-10T11:08:45.241Z,0.90
2023-05-10T11:09:45.211Z,0.80
2023-05-10T11:10:45.247Z,0.85
2023-05-10T11:11:45.214Z,0.81
2023-05-10T11:12:45.198Z,0.68
2023-05-10T11:13:45.498Z,0.79
2023-05-10T11:14:45.215Z,0.83
2023-05-10T11:15:45.184Z,0.82
2023-05-10T11:16:45.316Z,0.83
2023-05-10T11:17:45.211Z,0.82
2023-05-10T11:18:45.241Z,1.08
2023-05-10T11:19:45.150Z,1.03
2023-05-10T11:20:45.138Z,1.34
2023-05-10T11:21:45.157Z,1.99
2023-05-10T11:22:45.144Z,2.79
2023-05-10T11:23:45.130Z,2.94
2023-05-10T11:24:45.116Z,3.35
2023-05-10T11:25:45.133Z,3.38
2023-05-10T11:26:45.112Z,3.34
2023-05-10T11:27:45.104Z,3.42
2023-05-10T11:28:45.078Z,3.65
2023-05-10T11:29:45.085Z,1.95
2023-05-10T11:30:45.084Z,1.19
2023-05-10T11:31:45.083Z,0.91
2023-05-10T11:32:45.101Z,0.78
2023-05-10T11:33:45.065Z,0.65
2023-05-10T11:34:45.048Z,0.57
2023-05-10T11:35:45.053Z,0.50
2023-05-10T11:36:45.038Z,0.51
2023-05-10T11:37:45.008Z,0.52
2023-05-10T11:38:45.030Z,0.66
2023-05-10T11:39:44.994Z,0.71
2023-05-10T11:40:45.007Z,0.85
2023-05-10T11:41:45.006Z,0.94
2023-05-10T11:42:45.108Z,1.05
2023-05-10T11:43:45.090Z,1.12
2023-05-10T11:44:45.052Z,1.23
2023-05-10T11:45:45.123Z,1.27
2023-05-10T11:46:45.208Z,1.23
2023-05-10T11:47:45.223Z,1.23
2023-05-10T11:48:45.227Z,1.33
2023-05-10T11:49:45.242Z,1.36
2023-05-10T11:50:45.277Z,1.41
2023-05-10T11:51:45.310Z,1.46
2023-05-10T11:52:45.327Z,1.46
2023-05-10T11:53:45.318Z,1.52
2023-05-10T11:54:45.345Z,1.51
2023-05-10T11:55:45.360Z,1.50
2023-05-10T11:56:45.381Z,1.49
2023-05-10T11:57:45.365Z,1.53
2023-05-10T11:58:45.383Z,1.49
2023-05-10T11:59:45.393Z,1.49
2023-05-10T12:00:45.500Z,1.48
2023-05-10T12:01:45.393Z,1.47
2023-05-10T12:02:45.457Z,1.49
2023-05-10T12:03:45.566Z,1.45
2023-05-10T12:04:45.479Z,1.47
2023-05-10T12:05:45.402Z,1.47
2023-05-10T12:06:45.806Z,1.41
2023-05-10T12:07:45.397Z,1.40
2023-05-10T12:08:45.407Z,1.32
2023-05-10T12:09:45.400Z,1.34
2023-05-10T12:10:45.399Z,1.31
2023-05-10T12:11:45.822Z,1.33
2023-05-10T12:12:45.403Z,1.32
2023-05-10T12:13:45.389Z,1.30
2023-05-10T12:14:45.405Z,1.26
2023-05-10T12:15:45.404Z,1.25
2023-05-10T12:16:46.101Z,1.23
2023-05-10T12:17:45.467Z,1.28
2023-05-10T12:18:45.488Z,1.31
2023-05-10T12:19:45.410Z,1.30
2023-05-10T12:20:45.402Z,1.29
2023-05-10T12:21:45.407Z,1.30
2023-05-10T12:22:45.393Z,1.29
2023-05-10T12:23:45.419Z,1.25
2023-05-10T12:24:45.405Z,1.32
2023-05-10T12:25:45.412Z,1.34
2023-05-10T12:26:45.521Z,1.35
2023-05-10T12:27:45.426Z,1.40
2023-05-10T12:28:45.424Z,1.39
2023-05-10T12:29:45.470Z,1.39
2023-05-10T12:30:45.422Z,1.39
2023-05-10T12:31:45.461Z,1.43
2023-05-10T12:32:45.456Z,1.45
2023-05-10T12:33:45.472Z,1.45
2023-05-10T12:34:45.446Z,1.48
2023-05-10T12:35:45.453Z,1.46
2023-05-10T12:36:45.446Z,1.47
2023-05-10T12:37:45.446Z,1.47
2023-05-10T12:38:45.449Z,1.47
2023-05-10T12:39:45.447Z,1.53
2023-05-10T12:40:45.503Z,1.47
2023-05-10T12:41:45.435Z,1.52
2023-05-10T12:42:45.533Z,1.51
2023-05-10T12:43:45.445Z,1.51
2023-05-10T12:44:45.450Z,1.47
2023-05-10T12:45:45.519Z,1.51
2023-05-10T12:46:45.838Z,1.48
2023-05-10T12:47:45.499Z,1.51
2023-05-10T12:48:45.480Z,1.51
2023-05-10T12:49:45.492Z,1.51
2023-05-10T12:50:45.532Z,1.53
2023-05-10T12:51:45.564Z,1.57
2023-05-10T12:52:45.505Z,1.51
2023-05-10T12:53:47.356Z,1.49
2023-05-10T12:54:45.515Z,1.63
2023-05-10T12:55:45.515Z,1.60
2023-05-10T12:56:45.563Z,1.62
2023-05-10T12:57:45.521Z,1.62
2023-05-10T12:58:45.497Z,1.69
2023-05-10T12:59:45.483Z,1.66
2023-05-10T13:00:45.500Z,1.74
2023-05-10T13:01:45.495Z,1.76
2023-05-10T13:02:45.477Z,1.87
2023-05-10T13:03:45.458Z,1.88
2023-05-10T13:04:45.514Z,1.79
2023-05-10T13:05:45.446Z,1.87
2023-05-10T13:06:45.435Z,1.90
2023-05-10T13:07:45.423Z,1.81
2023-05-10T13:08:45.404Z,1.87
2023-05-10T13:09:45.414Z,1.87
2023-05-10T13:10:45.401Z,1.94
2023-05-10T13:11:45.405Z,1.97
2023-05-10T13:12:45.375Z,1.95